sensor_id;sensor_type;location;lat;lon;timestamp;P1;durP1;ratioP1;P2;durP2;ratioP2
52043;SDS011;38053;53.100;6.078;2024-01-27T00:00:09;27.65;;;6.07;;
52043;SDS011;38053;53.100;6.078;2024-01-27T00:02:35;17.27;;;5.10;;
52043;SDS011;38053;53.100;6.078;2024-01-27T00:08:18;28.42;;;4.82;;
52043;SDS011;38053;53.100;6.078;2024-01-27T00:10:44;39.05;;;5.60;;
52043;SDS011;38053;53.100;6.078;2024-01-27T00:13:11;23.40;;;4.47;;
52043;SDS011;38053;53.100;6.078;2024-01-27T00:15:36;21.42;;;4.63;;
52043;SDS011;38053;53.100;6.078;2024-01-27T00:18:02;31.77;;;6.30;;
52043;SDS011;38053;53.100;6.078;2024-01-27T00:20:28;23.65;;;5.18;;
52043;SDS011;38053;53.100;6.078;2024-01-27T00:22:53;34.33;;;7.70;;
52043;SDS011;38053;53.100;6.078;2024-01-27T00:25:19;32.17;;;5.28;;
52043;SDS011;38053;53.100;6.078;2024-01-27T00:27:45;34.05;;;5.82;;
52043;SDS011;38053;53.100;6.078;2024-01-27T00:30:13;32.97;;;5.68;;
52043;SDS011;38053;53.100;6.078;2024-01-27T00:32:39;58.38;;;9.65;;
52043;SDS011;38053;53.100;6.078;2024-01-27T00:35:07;29.30;;;4.80;;
52043;SDS011;38053;53.100;6.078;2024-01-27T00:37:34;32.05;;;5.75;;
52043;SDS011;38053;53.100;6.078;2024-01-27T00:39:59;27.42;;;5.07;;
52043;SDS011;38053;53.100;6.078;2024-01-27T00:42:25;36.03;;;4.97;;
52043;SDS011;38053;53.100;6.078;2024-01-27T00:44:51;28.90;;;6.03;;
52043;SDS011;38053;53.100;6.078;2024-01-27T00:47:16;32.05;;;6.32;;
52043;SDS011;38053;53.100;6.078;2024-01-27T00:49:42;26.08;;;4.90;;
52043;SDS011;38053;53.100;6.078;2024-01-27T00:52:07;36.33;;;6.70;;
52043;SDS011;38053;53.100;6.078;2024-01-27T00:54:33;39.60;;;8.68;;
52043;SDS011;38053;53.100;6.078;2024-01-27T00:56:59;29.92;;;5.22;;
52043;SDS011;38053;53.100;6.078;2024-01-27T00:59:24;25.73;;;5.75;;
52043;SDS011;38053;53.100;6.078;2024-01-27T01:01:50;30.80;;;6.85;;
52043;SDS011;38053;53.100;6.078;2024-01-27T01:04:16;42.28;;;8.70;;
52043;SDS011;38053;53.100;6.078;2024-01-27T01:06:42;28.30;;;5.63;;
52043;SDS011;38053;53.100;6.078;2024-01-27T01:09:07;33.65;;;6.28;;
52043;SDS011;38053;53.100;6.078;2024-01-27T01:11:33;36.55;;;5.85;;
52043;SDS011;38053;53.100;6.078;2024-01-27T01:14:02;29.08;;;5.03;;
52043;SDS011;38053;53.100;6.078;2024-01-27T01:16:27;31.27;;;4.53;;
52043;SDS011;38053;53.100;6.078;2024-01-27T01:18:53;22.48;;;4.40;;
52043;SDS011;38053;53.100;6.078;2024-01-27T01:21:19;32.58;;;4.85;;
52043;SDS011;38053;53.100;6.078;2024-01-27T01:23:44;33.20;;;6.30;;
52043;SDS011;38053;53.100;6.078;2024-01-27T01:26:10;19.52;;;4.45;;
52043;SDS011;38053;53.100;6.078;2024-01-27T01:28:35;29.38;;;4.25;;
52043;SDS011;38053;53.100;6.078;2024-01-27T01:34:03;43.88;;;6.93;;
52043;SDS011;38053;53.100;6.078;2024-01-27T01:36:28;34.17;;;6.88;;
52043;SDS011;38053;53.100;6.078;2024-01-27T01:38:54;41.90;;;5.32;;
52043;SDS011;38053;53.100;6.078;2024-01-27T01:41:19;42.65;;;5.60;;
52043;SDS011;38053;53.100;6.078;2024-01-27T01:43:45;27.65;;;5.35;;
52043;SDS011;38053;53.100;6.078;2024-01-27T01:46:10;33.13;;;6.30;;
52043;SDS011;38053;53.100;6.078;2024-01-27T01:48:36;32.28;;;4.53;;
52043;SDS011;38053;53.100;6.078;2024-01-27T01:51:02;25.92;;;6.57;;
52043;SDS011;38053;53.100;6.078;2024-01-27T01:53:29;27.58;;;6.85;;
52043;SDS011;38053;53.100;6.078;2024-01-27T01:55:54;29.13;;;4.85;;
52043;SDS011;38053;53.100;6.078;2024-01-27T01:58:22;38.25;;;5.40;;
52043;SDS011;38053;53.100;6.078;2024-01-27T02:00:48;26.48;;;4.60;;
52043;SDS011;38053;53.100;6.078;2024-01-27T02:03:13;28.75;;;4.80;;
52043;SDS011;38053;53.100;6.078;2024-01-27T02:05:39;32.70;;;4.95;;
52043;SDS011;38053;53.100;6.078;2024-01-27T02:08:05;31.75;;;4.78;;
52043;SDS011;38053;53.100;6.078;2024-01-27T02:10:31;41.40;;;5.32;;
52043;SDS011;38053;53.100;6.078;2024-01-27T02:13:14;37.17;;;5.88;;
52043;SDS011;38053;53.100;6.078;2024-01-27T02:15:45;38.83;;;6.03;;
52043;SDS011;38053;53.100;6.078;2024-01-27T02:18:11;34.20;;;6.32;;
52043;SDS011;38053;53.100;6.078;2024-01-27T02:20:37;18.83;;;5.07;;
52043;SDS011;38053;53.100;6.078;2024-01-27T02:23:03;32.58;;;5.07;;
52043;SDS011;38053;53.100;6.078;2024-01-27T02:25:30;26.50;;;6.30;;
52043;SDS011;38053;53.100;6.078;2024-01-27T02:27:56;28.80;;;4.50;;
52043;SDS011;38053;53.100;6.078;2024-01-27T02:30:21;25.27;;;5.05;;
52043;SDS011;38053;53.100;6.078;2024-01-27T02:32:47;35.47;;;5.40;;
52043;SDS011;38053;53.100;6.078;2024-01-27T02:35:13;32.97;;;4.80;;
52043;SDS011;38053;53.100;6.078;2024-01-27T02:37:40;36.38;;;5.70;;
52043;SDS011;38053;53.100;6.078;2024-01-27T02:40:06;32.97;;;5.78;;
52043;SDS011;38053;53.100;6.078;2024-01-27T02:42:33;29.42;;;6.65;;
52043;SDS011;38053;53.100;6.078;2024-01-27T02:44:58;23.92;;;4.82;;
52043;SDS011;38053;53.100;6.078;2024-01-27T02:47:24;34.80;;;6.65;;
52043;SDS011;38053;53.100;6.078;2024-01-27T02:49:50;25.40;;;5.10;;
52043;SDS011;38053;53.100;6.078;2024-01-27T02:52:15;34.35;;;5.85;;
52043;SDS011;38053;53.100;6.078;2024-01-27T02:54:41;30.77;;;4.32;;
52043;SDS011;38053;53.100;6.078;2024-01-27T02:57:06;27.67;;;4.88;;
52043;SDS011;38053;53.100;6.078;2024-01-27T02:59:32;34.85;;;5.68;;
52043;SDS011;38053;53.100;6.078;2024-01-27T03:01:58;45.45;;;7.57;;
52043;SDS011;38053;53.100;6.078;2024-01-27T03:04:23;37.45;;;4.90;;
52043;SDS011;38053;53.100;6.078;2024-01-27T03:06:49;40.40;;;6.72;;
52043;SDS011;38053;53.100;6.078;2024-01-27T03:09:16;33.20;;;6.30;;
52043;SDS011;38053;53.100;6.078;2024-01-27T03:11:41;29.83;;;5.90;;
52043;SDS011;38053;53.100;6.078;2024-01-27T03:14:07;23.92;;;4.03;;
52043;SDS011;38053;53.100;6.078;2024-01-27T03:16:33;33.88;;;6.97;;
52043;SDS011;38053;53.100;6.078;2024-01-27T03:18:59;26.40;;;5.65;;
52043;SDS011;38053;53.100;6.078;2024-01-27T03:21:24;32.38;;;6.75;;
52043;SDS011;38053;53.100;6.078;2024-01-27T03:23:50;28.00;;;6.93;;
52043;SDS011;38053;53.100;6.078;2024-01-27T03:26:16;21.92;;;5.10;;
52043;SDS011;38053;53.100;6.078;2024-01-27T03:28:41;27.25;;;5.57;;
52043;SDS011;38053;53.100;6.078;2024-01-27T03:31:07;24.73;;;4.55;;
52043;SDS011;38053;53.100;6.078;2024-01-27T03:33:32;25.40;;;5.13;;
52043;SDS011;38053;53.100;6.078;2024-01-27T03:35:58;21.17;;;5.63;;
52043;SDS011;38053;53.100;6.078;2024-01-27T03:38:24;35.28;;;5.28;;
52043;SDS011;38053;53.100;6.078;2024-01-27T03:40:49;30.90;;;4.43;;
52043;SDS011;38053;53.100;6.078;2024-01-27T03:43:15;41.38;;;6.30;;
52043;SDS011;38053;53.100;6.078;2024-01-27T03:45:40;37.30;;;6.00;;
52043;SDS011;38053;53.100;6.078;2024-01-27T03:48:09;32.55;;;5.80;;
52043;SDS011;38053;53.100;6.078;2024-01-27T03:50:34;25.98;;;3.72;;
52043;SDS011;38053;53.100;6.078;2024-01-27T03:53:00;37.08;;;5.90;;
52043;SDS011;38053;53.100;6.078;2024-01-27T03:55:32;28.77;;;4.93;;
52043;SDS011;38053;53.100;6.078;2024-01-27T03:57:59;18.90;;;3.72;;
52043;SDS011;38053;53.100;6.078;2024-01-27T04:00:24;40.17;;;6.97;;
52043;SDS011;38053;53.100;6.078;2024-01-27T04:02:51;34.80;;;4.32;;
52043;SDS011;38053;53.100;6.078;2024-01-27T04:05:16;38.47;;;5.47;;
52043;SDS011;38053;53.100;6.078;2024-01-27T04:07:42;41.72;;;5.43;;
52043;SDS011;38053;53.100;6.078;2024-01-27T04:10:08;30.23;;;5.22;;
52043;SDS011;38053;53.100;6.078;2024-01-27T04:12:34;33.47;;;5.97;;
52043;SDS011;38053;53.100;6.078;2024-01-27T04:14:59;42.88;;;6.97;;
52043;SDS011;38053;53.100;6.078;2024-01-27T04:17:25;33.75;;;5.68;;
52043;SDS011;38053;53.100;6.078;2024-01-27T04:19:51;35.60;;;6.10;;
52043;SDS011;38053;53.100;6.078;2024-01-27T04:22:16;28.35;;;4.82;;
52043;SDS011;38053;53.100;6.078;2024-01-27T04:24:42;34.20;;;7.22;;
52043;SDS011;38053;53.100;6.078;2024-01-27T04:27:16;30.40;;;5.28;;
52043;SDS011;38053;53.100;6.078;2024-01-27T04:29:42;32.00;;;5.28;;
52043;SDS011;38053;53.100;6.078;2024-01-27T04:32:08;42.97;;;10.32;;
52043;SDS011;38053;53.100;6.078;2024-01-27T04:34:33;29.38;;;5.65;;
52043;SDS011;38053;53.100;6.078;2024-01-27T04:36:59;31.70;;;5.15;;
52043;SDS011;38053;53.100;6.078;2024-01-27T04:39:24;25.45;;;6.13;;
52043;SDS011;38053;53.100;6.078;2024-01-27T04:41:50;38.33;;;6.32;;
52043;SDS011;38053;53.100;6.078;2024-01-27T04:44:16;35.78;;;5.25;;
52043;SDS011;38053;53.100;6.078;2024-01-27T04:46:41;32.17;;;4.20;;
52043;SDS011;38053;53.100;6.078;2024-01-27T04:49:07;21.73;;;4.15;;
52043;SDS011;38053;53.100;6.078;2024-01-27T04:51:33;35.30;;;4.90;;
52043;SDS011;38053;53.100;6.078;2024-01-27T04:53:58;24.50;;;5.90;;
52043;SDS011;38053;53.100;6.078;2024-01-27T04:56:24;32.97;;;6.57;;
52043;SDS011;38053;53.100;6.078;2024-01-27T04:58:49;24.55;;;4.25;;
52043;SDS011;38053;53.100;6.078;2024-01-27T05:01:15;23.83;;;4.70;;
52043;SDS011;38053;53.100;6.078;2024-01-27T05:03:41;20.95;;;4.03;;
52043;SDS011;38053;53.100;6.078;2024-01-27T05:06:10;29.25;;;5.50;;
52043;SDS011;38053;53.100;6.078;2024-01-27T05:08:35;29.15;;;4.13;;
52043;SDS011;38053;53.100;6.078;2024-01-27T05:11:06;32.17;;;4.35;;
52043;SDS011;38053;53.100;6.078;2024-01-27T05:13:31;40.90;;;5.47;;
52043;SDS011;38053;53.100;6.078;2024-01-27T05:15:57;37.72;;;5.40;;
52043;SDS011;38053;53.100;6.078;2024-01-27T05:18:22;36.15;;;5.25;;
52043;SDS011;38053;53.100;6.078;2024-01-27T05:20:48;37.35;;;4.88;;
52043;SDS011;38053;53.100;6.078;2024-01-27T05:23:14;39.80;;;5.72;;
52043;SDS011;38053;53.100;6.078;2024-01-27T05:25:39;39.25;;;5.10;;
52043;SDS011;38053;53.100;6.078;2024-01-27T05:28:05;33.25;;;4.03;;
52043;SDS011;38053;53.100;6.078;2024-01-27T05:30:31;24.33;;;4.82;;
52043;SDS011;38053;53.100;6.078;2024-01-27T05:32:56;21.67;;;5.47;;
52043;SDS011;38053;53.100;6.078;2024-01-27T05:35:22;29.27;;;4.88;;
52043;SDS011;38053;53.100;6.078;2024-01-27T05:37:48;34.42;;;5.88;;
52043;SDS011;38053;53.100;6.078;2024-01-27T05:40:13;28.42;;;5.93;;
52043;SDS011;38053;53.100;6.078;2024-01-27T05:42:40;38.10;;;4.93;;
52043;SDS011;38053;53.100;6.078;2024-01-27T05:45:08;36.08;;;5.05;;
52043;SDS011;38053;53.100;6.078;2024-01-27T05:47:35;34.22;;;5.00;;
52043;SDS011;38053;53.100;6.078;2024-01-27T05:50:01;21.83;;;4.35;;
52043;SDS011;38053;53.100;6.078;2024-01-27T05:52:26;23.73;;;4.57;;
52043;SDS011;38053;53.100;6.078;2024-01-27T05:55:02;25.92;;;5.68;;
52043;SDS011;38053;53.100;6.078;2024-01-27T05:57:31;30.75;;;5.07;;
52043;SDS011;38053;53.100;6.078;2024-01-27T05:59:57;27.33;;;4.93;;
52043;SDS011;38053;53.100;6.078;2024-01-27T06:02:23;38.72;;;7.15;;
52043;SDS011;38053;53.100;6.078;2024-01-27T06:04:49;23.52;;;4.45;;
52043;SDS011;38053;53.100;6.078;2024-01-27T06:07:14;32.08;;;5.32;;
52043;SDS011;38053;53.100;6.078;2024-01-27T06:09:40;37.70;;;6.68;;
52043;SDS011;38053;53.100;6.078;2024-01-27T06:12:05;30.63;;;5.25;;
52043;SDS011;38053;53.100;6.078;2024-01-27T06:14:31;24.52;;;4.63;;
52043;SDS011;38053;53.100;6.078;2024-01-27T06:16:57;28.08;;;5.88;;
52043;SDS011;38053;53.100;6.078;2024-01-27T06:19:23;30.17;;;6.10;;
52043;SDS011;38053;53.100;6.078;2024-01-27T06:21:48;26.90;;;5.63;;
52043;SDS011;38053;53.100;6.078;2024-01-27T06:24:17;33.42;;;5.82;;
52043;SDS011;38053;53.100;6.078;2024-01-27T06:26:43;22.83;;;4.65;;
52043;SDS011;38053;53.100;6.078;2024-01-27T06:29:08;30.17;;;7.10;;
52043;SDS011;38053;53.100;6.078;2024-01-27T06:31:34;29.02;;;7.18;;
52043;SDS011;38053;53.100;6.078;2024-01-27T06:34:00;34.13;;;5.25;;
52043;SDS011;38053;53.100;6.078;2024-01-27T06:36:25;40.53;;;6.20;;
52043;SDS011;38053;53.100;6.078;2024-01-27T06:38:52;26.63;;;5.43;;
52043;SDS011;38053;53.100;6.078;2024-01-27T06:41:18;35.47;;;6.53;;
52043;SDS011;38053;53.100;6.078;2024-01-27T06:43:47;27.55;;;4.50;;
52043;SDS011;38053;53.100;6.078;2024-01-27T06:46:13;30.60;;;6.47;;
52043;SDS011;38053;53.100;6.078;2024-01-27T06:48:38;33.30;;;7.35;;
52043;SDS011;38053;53.100;6.078;2024-01-27T06:51:04;29.83;;;5.68;;
52043;SDS011;38053;53.100;6.078;2024-01-27T06:53:30;26.80;;;5.65;;
52043;SDS011;38053;53.100;6.078;2024-01-27T06:55:56;34.53;;;6.15;;
52043;SDS011;38053;53.100;6.078;2024-01-27T06:58:21;42.67;;;7.95;;
52043;SDS011;38053;53.100;6.078;2024-01-27T07:00:47;30.70;;;6.95;;
52043;SDS011;38053;53.100;6.078;2024-01-27T07:03:12;38.15;;;7.03;;
52043;SDS011;38053;53.100;6.078;2024-01-27T07:05:38;33.47;;;6.82;;
52043;SDS011;38053;53.100;6.078;2024-01-27T07:08:07;37.38;;;8.98;;
52043;SDS011;38053;53.100;6.078;2024-01-27T07:10:33;31.60;;;7.13;;
52043;SDS011;38053;53.100;6.078;2024-01-27T07:12:59;31.52;;;6.75;;
52043;SDS011;38053;53.100;6.078;2024-01-27T07:15:25;37.95;;;7.30;;
52043;SDS011;38053;53.100;6.078;2024-01-27T07:17:52;46.38;;;8.80;;
52043;SDS011;38053;53.100;6.078;2024-01-27T07:20:18;27.45;;;6.25;;
52043;SDS011;38053;53.100;6.078;2024-01-27T07:22:45;26.48;;;6.15;;
52043;SDS011;38053;53.100;6.078;2024-01-27T07:25:14;41.20;;;6.32;;
52043;SDS011;38053;53.100;6.078;2024-01-27T07:27:39;27.70;;;7.43;;
52043;SDS011;38053;53.100;6.078;2024-01-27T07:30:05;30.23;;;6.55;;
52043;SDS011;38053;53.100;6.078;2024-01-27T07:32:33;26.23;;;5.82;;
52043;SDS011;38053;53.100;6.078;2024-01-27T07:34:59;46.45;;;8.38;;
52043;SDS011;38053;53.100;6.078;2024-01-27T07:37:24;35.17;;;6.88;;
52043;SDS011;38053;53.100;6.078;2024-01-27T07:39:50;35.13;;;6.03;;
52043;SDS011;38053;53.100;6.078;2024-01-27T07:42:16;41.90;;;6.60;;
52043;SDS011;38053;53.100;6.078;2024-01-27T07:44:41;42.20;;;7.78;;
52043;SDS011;38053;53.100;6.078;2024-01-27T07:47:07;42.13;;;8.68;;
52043;SDS011;38053;53.100;6.078;2024-01-27T07:49:34;52.08;;;8.93;;
52043;SDS011;38053;53.100;6.078;2024-01-27T07:51:59;37.85;;;8.80;;
52043;SDS011;38053;53.100;6.078;2024-01-27T07:54:25;32.22;;;9.15;;
52043;SDS011;38053;53.100;6.078;2024-01-27T07:56:51;45.47;;;9.95;;
52043;SDS011;38053;53.100;6.078;2024-01-27T07:59:17;32.65;;;8.15;;
52043;SDS011;38053;53.100;6.078;2024-01-27T08:01:43;35.08;;;8.02;;
52043;SDS011;38053;53.100;6.078;2024-01-27T08:04:09;25.92;;;8.00;;
52043;SDS011;38053;53.100;6.078;2024-01-27T08:06:45;39.03;;;7.88;;
52043;SDS011;38053;53.100;6.078;2024-01-27T08:09:15;64.95;;;10.35;;
52043;SDS011;38053;53.100;6.078;2024-01-27T08:11:41;41.70;;;8.02;;
52043;SDS011;38053;53.100;6.078;2024-01-27T08:14:07;33.67;;;8.35;;
52043;SDS011;38053;53.100;6.078;2024-01-27T08:16:33;29.65;;;7.10;;
52043;SDS011;38053;53.100;6.078;2024-01-27T08:18:58;33.97;;;6.50;;
52043;SDS011;38053;53.100;6.078;2024-01-27T08:21:30;31.55;;;6.20;;
52043;SDS011;38053;53.100;6.078;2024-01-27T08:23:55;40.55;;;9.00;;
52043;SDS011;38053;53.100;6.078;2024-01-27T08:26:21;45.63;;;6.32;;
52043;SDS011;38053;53.100;6.078;2024-01-27T08:28:47;45.35;;;7.70;;
52043;SDS011;38053;53.100;6.078;2024-01-27T08:31:13;36.80;;;6.93;;
52043;SDS011;38053;53.100;6.078;2024-01-27T08:33:38;32.25;;;7.38;;
52043;SDS011;38053;53.100;6.078;2024-01-27T08:36:04;41.67;;;8.70;;
52043;SDS011;38053;53.100;6.078;2024-01-27T08:38:30;38.70;;;7.13;;
52043;SDS011;38053;53.100;6.078;2024-01-27T08:40:55;35.08;;;7.60;;
52043;SDS011;38053;53.100;6.078;2024-01-27T08:43:21;35.08;;;9.30;;
52043;SDS011;38053;53.100;6.078;2024-01-27T08:45:46;37.42;;;7.95;;
52043;SDS011;38053;53.100;6.078;2024-01-27T08:48:12;45.33;;;9.38;;
52043;SDS011;38053;53.100;6.078;2024-01-27T08:50:38;41.72;;;8.35;;
52043;SDS011;38053;53.100;6.078;2024-01-27T08:53:04;31.17;;;8.45;;
52043;SDS011;38053;53.100;6.078;2024-01-27T08:55:30;47.58;;;9.85;;
52043;SDS011;38053;53.100;6.078;2024-01-27T08:57:56;33.63;;;11.23;;
52043;SDS011;38053;53.100;6.078;2024-01-27T09:00:22;35.67;;;9.95;;
52043;SDS011;38053;53.100;6.078;2024-01-27T09:02:47;43.35;;;12.43;;
52043;SDS011;38053;53.100;6.078;2024-01-27T09:05:13;34.30;;;9.07;;
52043;SDS011;38053;53.100;6.078;2024-01-27T09:07:39;37.50;;;10.02;;
52043;SDS011;38053;53.100;6.078;2024-01-27T09:10:05;40.08;;;13.50;;
52043;SDS011;38053;53.100;6.078;2024-01-27T09:12:31;41.78;;;11.55;;
52043;SDS011;38053;53.100;6.078;2024-01-27T09:14:57;45.08;;;11.20;;
52043;SDS011;38053;53.100;6.078;2024-01-27T09:17:23;60.10;;;12.05;;
52043;SDS011;38053;53.100;6.078;2024-01-27T09:19:49;67.15;;;13.07;;
52043;SDS011;38053;53.100;6.078;2024-01-27T09:22:15;41.55;;;9.60;;
52043;SDS011;38053;53.100;6.078;2024-01-27T09:24:41;38.45;;;9.57;;
52043;SDS011;38053;53.100;6.078;2024-01-27T09:27:16;44.10;;;10.30;;
52043;SDS011;38053;53.100;6.078;2024-01-27T09:29:42;35.53;;;9.23;;
52043;SDS011;38053;53.100;6.078;2024-01-27T09:32:07;33.10;;;9.88;;
52043;SDS011;38053;53.100;6.078;2024-01-27T09:34:33;41.50;;;9.90;;
52043;SDS011;38053;53.100;6.078;2024-01-27T09:36:59;38.97;;;8.85;;
52043;SDS011;38053;53.100;6.078;2024-01-27T09:39:25;30.88;;;9.70;;
52043;SDS011;38053;53.100;6.078;2024-01-27T09:41:51;30.63;;;7.15;;
52043;SDS011;38053;53.100;6.078;2024-01-27T09:44:18;42.75;;;9.02;;
52043;SDS011;38053;53.100;6.078;2024-01-27T09:46:45;27.73;;;7.07;;
52043;SDS011;38053;53.100;6.078;2024-01-27T09:49:13;30.77;;;8.43;;
52043;SDS011;38053;53.100;6.078;2024-01-27T09:51:41;30.05;;;6.90;;
52043;SDS011;38053;53.100;6.078;2024-01-27T09:54:07;30.52;;;7.55;;
52043;SDS011;38053;53.100;6.078;2024-01-27T09:56:32;24.38;;;7.60;;
52043;SDS011;38053;53.100;6.078;2024-01-27T09:58:59;32.60;;;8.50;;
52043;SDS011;38053;53.100;6.078;2024-01-27T10:01:25;33.92;;;8.10;;
52043;SDS011;38053;53.100;6.078;2024-01-27T10:03:53;27.75;;;8.90;;
52043;SDS011;38053;53.100;6.078;2024-01-27T10:06:20;31.85;;;7.10;;
52043;SDS011;38053;53.100;6.078;2024-01-27T10:08:51;36.97;;;7.78;;
52043;SDS011;38053;53.100;6.078;2024-01-27T10:11:19;32.25;;;7.43;;
52043;SDS011;38053;53.100;6.078;2024-01-27T10:13:46;28.60;;;6.60;;
52043;SDS011;38053;53.100;6.078;2024-01-27T10:16:22;26.40;;;7.22;;
52043;SDS011;38053;53.100;6.078;2024-01-27T10:18:58;28.95;;;7.18;;
52043;SDS011;38053;53.100;6.078;2024-01-27T10:21:25;26.83;;;8.90;;
52043;SDS011;38053;53.100;6.078;2024-01-27T10:23:52;25.73;;;6.90;;
52043;SDS011;38053;53.100;6.078;2024-01-27T10:26:20;20.27;;;5.65;;
52043;SDS011;38053;53.100;6.078;2024-01-27T10:28:52;28.48;;;6.45;;
52043;SDS011;38053;53.100;6.078;2024-01-27T10:31:19;36.35;;;7.15;;
52043;SDS011;38053;53.100;6.078;2024-01-27T10:33:51;17.83;;;6.72;;
52043;SDS011;38053;53.100;6.078;2024-01-27T10:36:18;32.30;;;5.68;;
52043;SDS011;38053;53.100;6.078;2024-01-27T10:38:44;29.73;;;6.22;;
52043;SDS011;38053;53.100;6.078;2024-01-27T10:41:10;40.22;;;7.15;;
52043;SDS011;38053;53.100;6.078;2024-01-27T10:43:36;36.88;;;6.25;;
52043;SDS011;38053;53.100;6.078;2024-01-27T10:46:07;24.98;;;6.35;;
52043;SDS011;38053;53.100;6.078;2024-01-27T10:48:34;27.15;;;5.88;;
52043;SDS011;38053;53.100;6.078;2024-01-27T10:51:03;30.10;;;8.23;;
52043;SDS011;38053;53.100;6.078;2024-01-27T10:53:35;31.50;;;7.07;;
52043;SDS011;38053;53.100;6.078;2024-01-27T10:56:02;29.13;;;8.20;;
52043;SDS011;38053;53.100;6.078;2024-01-27T10:58:32;36.83;;;8.10;;
52043;SDS011;38053;53.100;6.078;2024-01-27T11:01:05;27.05;;;7.45;;
52043;SDS011;38053;53.100;6.078;2024-01-27T11:03:37;23.52;;;5.93;;
52043;SDS011;38053;53.100;6.078;2024-01-27T11:06:05;28.65;;;6.50;;
52043;SDS011;38053;53.100;6.078;2024-01-27T11:08:31;31.38;;;6.07;;
52043;SDS011;38053;53.100;6.078;2024-01-27T11:11:02;27.65;;;6.63;;
52043;SDS011;38053;53.100;6.078;2024-01-27T11:13:29;39.40;;;8.40;;
52043;SDS011;38053;53.100;6.078;2024-01-27T11:15:57;21.92;;;6.45;;
52043;SDS011;38053;53.100;6.078;2024-01-27T11:18:25;42.58;;;8.00;;
52043;SDS011;38053;53.100;6.078;2024-01-27T11:20:55;34.70;;;7.47;;
52043;SDS011;38053;53.100;6.078;2024-01-27T11:23:31;27.27;;;7.70;;
52043;SDS011;38053;53.100;6.078;2024-01-27T11:26:07;28.52;;;7.82;;
52043;SDS011;38053;53.100;6.078;2024-01-27T11:28:34;30.35;;;5.68;;
52043;SDS011;38053;53.100;6.078;2024-01-27T11:31:04;30.17;;;6.38;;
52043;SDS011;38053;53.100;6.078;2024-01-27T11:33:31;37.38;;;6.47;;
52043;SDS011;38053;53.100;6.078;2024-01-27T11:36:03;26.77;;;7.15;;
52043;SDS011;38053;53.100;6.078;2024-01-27T11:38:32;35.88;;;7.60;;
52043;SDS011;38053;53.100;6.078;2024-01-27T11:41:01;27.27;;;6.05;;
52043;SDS011;38053;53.100;6.078;2024-01-27T11:43:28;27.52;;;5.85;;
52043;SDS011;38053;53.100;6.078;2024-01-27T11:45:57;29.50;;;7.40;;
52043;SDS011;38053;53.100;6.078;2024-01-27T11:48:24;43.03;;;7.50;;
52043;SDS011;38053;53.100;6.078;2024-01-27T11:51:01;31.85;;;7.90;;
52043;SDS011;38053;53.100;6.078;2024-01-27T11:53:31;29.85;;;8.02;;
52043;SDS011;38053;53.100;6.078;2024-01-27T11:55:56;23.08;;;5.68;;
52043;SDS011;38053;53.100;6.078;2024-01-27T11:58:24;27.73;;;7.30;;
52043;SDS011;38053;53.100;6.078;2024-01-27T12:00:49;26.15;;;7.05;;
52043;SDS011;38053;53.100;6.078;2024-01-27T12:03:15;24.52;;;6.18;;
52043;SDS011;38053;53.100;6.078;2024-01-27T12:05:41;27.00;;;6.93;;
52043;SDS011;38053;53.100;6.078;2024-01-27T12:08:07;32.63;;;7.03;;
52043;SDS011;38053;53.100;6.078;2024-01-27T12:10:33;24.67;;;5.80;;
52043;SDS011;38053;53.100;6.078;2024-01-27T12:12:59;31.10;;;5.70;;
52043;SDS011;38053;53.100;6.078;2024-01-27T12:15:28;24.42;;;6.85;;
52043;SDS011;38053;53.100;6.078;2024-01-27T12:17:54;23.90;;;6.25;;
52043;SDS011;38053;53.100;6.078;2024-01-27T12:20:22;28.73;;;7.25;;
52043;SDS011;38053;53.100;6.078;2024-01-27T12:22:48;25.05;;;5.72;;
52043;SDS011;38053;53.100;6.078;2024-01-27T12:25:33;27.73;;;6.15;;
52043;SDS011;38053;53.100;6.078;2024-01-27T12:28:03;27.33;;;6.63;;
52043;SDS011;38053;53.100;6.078;2024-01-27T12:30:28;23.10;;;6.05;;
52043;SDS011;38053;53.100;6.078;2024-01-27T12:32:56;23.98;;;6.78;;
52043;SDS011;38053;53.100;6.078;2024-01-27T12:35:23;22.30;;;6.32;;
52043;SDS011;38053;53.100;6.078;2024-01-27T12:37:49;26.63;;;6.20;;
52043;SDS011;38053;53.100;6.078;2024-01-27T12:40:18;21.35;;;5.82;;
52043;SDS011;38053;53.100;6.078;2024-01-27T12:42:45;23.60;;;5.80;;
52043;SDS011;38053;53.100;6.078;2024-01-27T12:45:11;23.55;;;5.40;;
52043;SDS011;38053;53.100;6.078;2024-01-27T12:47:37;29.65;;;7.88;;
52043;SDS011;38053;53.100;6.078;2024-01-27T12:50:04;28.45;;;6.68;;
52043;SDS011;38053;53.100;6.078;2024-01-27T12:52:31;22.50;;;6.15;;
52043;SDS011;38053;53.100;6.078;2024-01-27T12:54:57;28.10;;;7.00;;
52043;SDS011;38053;53.100;6.078;2024-01-27T12:57:22;26.52;;;7.50;;
52043;SDS011;38053;53.100;6.078;2024-01-27T12:59:48;33.35;;;8.98;;
52043;SDS011;38053;53.100;6.078;2024-01-27T13:02:14;21.80;;;5.95;;
52043;SDS011;38053;53.100;6.078;2024-01-27T13:04:40;29.10;;;5.40;;
52043;SDS011;38053;53.100;6.078;2024-01-27T13:07:06;31.70;;;5.85;;
52043;SDS011;38053;53.100;6.078;2024-01-27T13:09:32;22.80;;;7.25;;
52043;SDS011;38053;53.100;6.078;2024-01-27T13:11:58;27.35;;;6.45;;
52043;SDS011;38053;53.100;6.078;2024-01-27T13:14:24;30.88;;;5.55;;
52043;SDS011;38053;53.100;6.078;2024-01-27T13:16:50;30.35;;;6.45;;
52043;SDS011;38053;53.100;6.078;2024-01-27T13:19:18;22.42;;;7.03;;
52043;SDS011;38053;53.100;6.078;2024-01-27T13:21:44;26.98;;;6.75;;
52043;SDS011;38053;53.100;6.078;2024-01-27T13:24:09;27.75;;;5.78;;
52043;SDS011;38053;53.100;6.078;2024-01-27T13:26:54;29.63;;;7.03;;
52043;SDS011;38053;53.100;6.078;2024-01-27T13:29:19;32.63;;;6.22;;
52043;SDS011;38053;53.100;6.078;2024-01-27T13:31:45;30.80;;;7.30;;
52043;SDS011;38053;53.100;6.078;2024-01-27T13:34:12;29.85;;;7.28;;
52043;SDS011;38053;53.100;6.078;2024-01-27T13:36:37;26.17;;;6.32;;
52043;SDS011;38053;53.100;6.078;2024-01-27T13:39:05;27.95;;;6.72;;
52043;SDS011;38053;53.100;6.078;2024-01-27T13:41:31;18.45;;;5.25;;
52043;SDS011;38053;53.100;6.078;2024-01-27T13:43:57;28.67;;;8.25;;
52043;SDS011;38053;53.100;6.078;2024-01-27T13:46:22;32.67;;;8.32;;
52043;SDS011;38053;53.100;6.078;2024-01-27T13:48:48;39.35;;;10.13;;
52043;SDS011;38053;53.100;6.078;2024-01-27T13:51:14;32.70;;;6.85;;
52043;SDS011;38053;53.100;6.078;2024-01-27T13:53:47;31.67;;;10.98;;
52043;SDS011;38053;53.100;6.078;2024-01-27T13:56:13;36.20;;;7.65;;
52043;SDS011;38053;53.100;6.078;2024-01-27T13:58:39;33.88;;;7.95;;
52043;SDS011;38053;53.100;6.078;2024-01-27T14:01:06;19.45;;;6.40;;
52043;SDS011;38053;53.100;6.078;2024-01-27T14:03:31;27.30;;;7.32;;
52043;SDS011;38053;53.100;6.078;2024-01-27T14:05:57;27.73;;;7.35;;
52043;SDS011;38053;53.100;6.078;2024-01-27T14:08:22;39.33;;;9.13;;
52043;SDS011;38053;53.100;6.078;2024-01-27T14:10:48;22.67;;;8.43;;
52043;SDS011;38053;53.100;6.078;2024-01-27T14:13:16;26.45;;;7.20;;
52043;SDS011;38053;53.100;6.078;2024-01-27T14:15:42;34.92;;;7.38;;
52043;SDS011;38053;53.100;6.078;2024-01-27T14:18:08;33.35;;;8.32;;
52043;SDS011;38053;53.100;6.078;2024-01-27T14:23:25;33.15;;;8.13;;
52043;SDS011;38053;53.100;6.078;2024-01-27T14:25:52;28.38;;;9.63;;
52043;SDS011;38053;53.100;6.078;2024-01-27T14:28:18;24.60;;;7.70;;
52043;SDS011;38053;53.100;6.078;2024-01-27T14:30:43;32.67;;;8.90;;
52043;SDS011;38053;53.100;6.078;2024-01-27T14:33:10;26.27;;;8.13;;
52043;SDS011;38053;53.100;6.078;2024-01-27T14:35:36;31.10;;;8.07;;
52043;SDS011;38053;53.100;6.078;2024-01-27T14:38:02;29.02;;;9.98;;